Time;durP1;ratioP1;P1;durP2;ratioP2;P2;SDS_P1;SDS_P2;PMS_P1;PMS_P2;Temp;Humidity;BMP_temperature;BMP_pressure;BME280_temperature;BME280_humidity;BME280_pressure;Samples;Min_cycle;Max_cycle;Signal;HPM_P1;HPM_P2
2022/05/11 00:44:48;;;;;;;8.73;3.90;;;19.00;99.90;;;;;;6762801;88;20375;-84
2022/05/11 01:24:59;;;;;;;8.20;3.67;;;18.60;99.90;;;;;;6663764;88;20224;-84
2022/05/11 01:35:19;;;;;;;7.95;3.70;;;18.50;99.90;;;;;;6717132;88;20217;-84
2022/05/11 01:45:19;;;;;;;6.65;3.20;;;18.40;99.90;;;;;;6699923;89;20748;-85
2022/05/11 01:55:20;;;;;;;5.10;3.17;;;18.40;99.90;;;;;;6700065;89;20164;-84
2022/05/11 02:15:40;;;;;;;6.82;3.10;;;18.50;99.90;;;;;;6632545;88;20166;-84
2022/05/11 02:25:45;;;;;;;6.40;3.35;;;18.50;99.90;;;;;;6631340;88;20271;-83
2022/05/11 02:35:46;;;;;;;6.78;3.72;;;18.20;99.90;;;;;;6681158;89;20152;-82
2022/05/11 02:45:49;;;;;;;8.30;4.25;;;18.20;99.90;;;;;;6681162;89;20176;-81
2022/05/11 02:55:52;;;;;;;6.20;4.20;;;18.10;99.90;;;;;;6715287;88;20155;-83
2022/05/11 03:05:52;;;;;;;10.70;4.47;;;17.80;99.90;;;;;;6742508;88;20181;-82
2022/05/11 03:15:53;;;;;;;8.13;4.78;;;17.80;99.90;;;;;;6666453;88;20273;-84
2022/05/11 03:25:55;;;;;;;8.33;5.23;;;17.80;99.90;;;;;;6628443;88;20154;-83
2022/05/11 03:35:55;;;;;;;8.60;5.25;;;17.50;99.90;;;;;;6628347;88;20495;-83
2022/05/11 03:45:56;;;;;;;9.57;5.90;;;17.50;99.90;;;;;;6614918;88;20178;-83
2022/05/11 03:55:56;;;;;;;7.13;5.23;;;17.20;99.90;;;;;;6611353;88;20163;-83
2022/05/11 04:05:57;;;;;;;9.07;5.53;;;17.10;99.90;;;;;;6624334;88;20169;-83
2022/05/11 04:15:58;;;;;;;9.00;5.50;;;17.30;99.90;;;;;;6629459;88;20205;-83
2022/05/11 04:25:58;;;;;;;8.38;5.22;;;17.40;99.90;;;;;;6731273;88;21199;-83
2022/05/11 04:36:00;;;;;;;7.60;4.82;;;17.40;99.90;;;;;;6731272;88;20213;-83
2022/05/11 04:56:24;;;;;;;10.25;4.28;;;17.40;99.90;;;;;;6709372;77;20249;-84
2022/05/11 05:27:51;;;;;;;6.97;3.58;;;18.30;99.90;;;;;;6729801;78;20233;-84
2022/05/11 05:38:32;;;;;;;4.28;3.58;;;18.70;99.90;;;;;;6877828;78;21354;-84
2022/05/11 05:48:53;;;;;;;5.00;3.42;;;18.90;99.90;;;;;;6819303;78;20195;-87
2022/05/11 06:09:18;;;;;;;4.77;3.23;;;19.90;99.90;;;;;;5064403;78;20273;-86
2022/05/11 06:40:07;;;;;;;5.80;3.20;;;21.60;99.90;;;;;;4911262;77;20148;-85
2022/05/11 08:41:52;;;;;;;3.80;2.70;;;26.40;91.60;;;;;;6633966;89;20197;-79
2022/05/11 08:52:00;;;;;;;5.53;2.80;;;27.20;90.90;;;;;;6635626;89;20212;-78
2022/05/11 09:02:25;;;;;;;5.53;2.60;;;27.40;89.80;;;;;;6635207;89;20214;-80
2022/05/11 09:12:26;;;;;;;3.45;2.40;;;27.50;89.30;;;;;;6632122;88;20229;-80
2022/05/11 09:22:27;;;;;;;4.00;2.22;;;27.70;86.90;;;;;;6635645;89;20329;-80
2022/05/11 09:32:37;;;;;;;4.40;2.20;;;27.60;83.90;;;;;;6636300;89;20314;-80
2022/05/11 09:42:55;;;;;;;4.93;2.30;;;28.10;82.70;;;;;;6637098;89;20197;-80
2022/05/11 09:53:08;;;;;;;5.03;2.40;;;28.50;81.00;;;;;;6636747;89;20608;-79
2022/05/11 10:03:13;;;;;;;8.30;2.22;;;28.50;79.60;;;;;;6635383;89;20213;-79
2022/05/11 10:13:52;;;;;;;3.62;2.10;;;28.60;79.90;;;;;;6635349;89;20200;-80
2022/05/11 10:24:08;;;;;;;9.68;2.47;;;29.70;76.70;;;;;;6634719;89;20756;-80
2022/05/11 10:34:32;;;;;;;5.12;3.00;;;29.60;75.90;;;;;;6634123;89;20587;-80
2022/05/11 10:44:41;;;;;;;3.45;2.20;;;29.50;76.10;;;;;;6632046;89;20207;-80
2022/05/11 10:54:59;;;;;;;4.45;2.28;;;30.00;73.40;;;;;;6634264;89;20215;-80
2022/05/11 11:05:13;;;;;;;7.97;2.10;;;30.30;71.80;;;;;;6627488;89;20634;-80
2022/05/11 11:15:17;;;;;;;3.83;2.17;;;30.20;68.40;;;;;;6629583;89;20656;-81
2022/05/11 11:25:22;;;;;;;6.12;2.10;;;29.60;66.70;;;;;;6635283;89;20223;-81
2022/05/11 11:35:23;;;;;;;6.18;1.85;;;29.50;67.60;;;;;;6629948;89;20210;-80
2022/05/11 11:45:26;;;;;;;5.62;2.12;;;29.90;65.60;;;;;;6622503;89;20197;-81
2022/05/11 11:55:30;;;;;;;4.40;2.05;;;30.40;67.40;;;;;;6636005;89;20202;-80
2022/05/11 12:05:45;;;;;;;2.30;1.60;;;30.10;62.90;;;;;;6622159;89;20317;-80
2022/05/11 12:15:46;;;;;;;4.00;1.80;;;30.90;61.30;;;;;;6621768;89;20656;-80
2022/05/11 12:25:57;;;;;;;5.53;1.80;;;31.10;60.90;;;;;;6619843;89;20234;-81
2022/05/11 12:35:57;;;;;;;2.85;1.80;;;31.00;61.20;;;;;;6616864;89;20261;-80
2022/05/11 12:46:04;;;;;;;6.05;1.73;;;31.40;62.00;;;;;;6620779;89;20334;-81
2022/05/11 12:56:19;;;;;;;3.78;1.70;;;31.20;59.90;;;;;;6616174;89;20199;-79
2022/05/11 13:06:34;;;;;;;2.97;1.45;;;31.50;58.50;;;;;;6620625;89;20267;-80
2022/05/11 13:16:35;;;;;;;3.80;1.52;;;31.30;58.20;;;;;;6626562;89;20745;-79
2022/05/11 13:26:41;;;;;;;3.50;1.33;;;31.90;58.30;;;;;;6627822;89;20195;-79
2022/05/11 13:36:46;;;;;;;4.62;1.42;;;31.50;57.70;;;;;;6624185;89;20242;-80
2022/05/11 13:57:27;;;;;;;5.62;1.35;;;31.10;57.50;;;;;;6620114;88;20351;-79
2022/05/11 14:07:28;;;;;;;4.85;1.80;;;31.20;58.50;;;;;;6621898;88;20250;-79
2022/05/11 14:17:29;;;;;;;2.87;1.27;;;31.30;58.00;;;;;;6622417;89;20693;-79
2022/05/11 14:27:29;;;;;;;6.67;1.40;;;31.20;58.50;;;;;;6645583;78;20192;-78
2022/05/11 14:37:30;;;;;;;2.67;1.40;;;30.20;58.90;;;;;;6654332;89;20660;-78
2022/05/11 14:47:31;;;;;;;4.40;1.30;;;31.30;58.80;;;;;;6651578;89;20230;-76
2022/05/11 15:07:51;;;;;;;4.28;1.30;;;30.50;58.50;;;;;;6633256;89;20229;-76
2022/05/11 15:17:53;;;;;;;1.73;1.40;;;30.80;58.40;;;;;;6633051;88;20873;-75
2022/05/11 15:27:54;;;;;;;;;;;30.60;58.70;;;;;;6635276;89;20217;-78
2022/05/11 15:37:55;;;;;;;3.87;1.23;;;30.30;58.80;;;;;;6637701;88;20045;-79
2022/05/11 15:47:56;;;;;;;4.37;1.50;;;29.90;59.60;;;;;;6642996;88;20189;-78
2022/05/11 15:57:56;;;;;;;2.60;1.40;;;29.80;59.90;;;;;;6650770;88;20352;-79
2022/05/11 16:07:57;;;;;;;3.78;1.40;;;29.90;61.20;;;;;;6653966;88;20528;-79
2022/05/11 16:28:16;;;;;;;4.35;1.60;;;28.70;63.30;;;;;;6639989;89;20595;-78
2022/05/11 16:38:17;;;;;;;3.75;1.55;;;29.00;64.30;;;;;;6645494;88;20198;-77
2022/05/11 16:48:19;;;;;;;4.15;1.67;;;29.00;63.90;;;;;;6640066;89;20213;-79
2022/05/11 16:58:24;;;;;;;5.53;1.62;;;28.80;64.20;;;;;;6642899;89;20217;-79
2022/05/11 17:08:25;;;;;;;4.95;1.77;;;28.40;65.30;;;;;;6646004;89;20564;-79
2022/05/11 17:18:31;;;;;;;4.60;1.60;;;28.10;65.70;;;;;;6642368;89;20644;-77
2022/05/11 17:28:32;;;;;;;3.75;1.60;;;27.80;66.50;;;;;;6649564;89;20227;-77
2022/05/11 17:38:32;;;;;;;6.20;1.70;;;27.30;67.60;;;;;;6650177;88;20249;-78
2022/05/11 17:48:33;;;;;;;3.20;1.70;;;26.80;67.90;;;;;;6645678;89;20220;-79
2022/05/11 17:58:34;;;;;;;3.03;1.58;;;26.50;68.00;;;;;;6643051;88;20562;-76
2022/05/11 18:08:37;;;;;;;3.80;1.55;;;26.30;68.00;;;;;;6645444;89;20205;-77
2022/05/11 18:18:38;;;;;;;2.25;1.40;;;26.90;67.20;;;;;;6647318;88;20213;-77
2022/05/11 18:28:39;;;;;;;4.80;1.70;;;25.90;68.00;;;;;;6648784;89;20656;-77
2022/05/11 18:38:39;;;;;;;4.20;1.80;;;25.50;68.90;;;;;;6636994;89;20327;-77
2022/05/11 18:48:40;;;;;;;4.40;1.50;;;25.30;69.20;;;;;;6642273;89;20647;-77
2022/05/11 18:58:41;;;;;;;4.95;1.83;;;25.10;69.50;;;;;;6652321;89;20212;-77
2022/05/11 19:08:41;;;;;;;3.72;1.60;;;24.80;70.00;;;;;;6646323;89;20213;-78
2022/05/11 19:18:42;;;;;;;3.42;1.70;;;24.70;70.40;;;;;;6645131;89;20193;-78
2022/05/11 19:28:43;;;;;;;3.45;1.62;;;24.50;70.90;;;;;;6638475;89;20228;-78
2022/05/11 19:38:44;;;;;;;4.10;1.65;;;24.20;71.40;;;;;;6637116;88;20215;-76
2022/05/11 19:48:45;;;;;;;3.17;1.67;;;24.00;72.20;;;;;;6640569;88;20306;-76
2022/05/11 19:58:47;;;;;;;6.45;1.73;;;24.00;72.30;;;;;;6642239;89;20303;-76
2022/05/11 20:08:52;;;;;;;4.43;1.80;;;23.80;73.00;;;;;;6648575;89;20198;-77
2022/05/11 20:18:53;;;;;;;5.62;1.62;;;23.70;73.30;;;;;;6640338;89;20226;-76
2022/05/11 20:29:34;;;;;;;4.32;1.73;;;23.50;74.30;;;;;;6661698;78;20204;-81
2022/05/11 20:39:35;;;;;;;2.95;1.70;;;23.50;74.40;;;;;;6687592;88;20187;-81
2022/05/11 20:49:36;;;;;;;7.70;1.60;;;23.40;74.30;;;;;;6685199;88;20210;-81
2022/05/11 20:59:36;;;;;;;2.87;1.50;;;23.10;74.90;;;;;;6685412;88;21823;-80
2022/05/11 21:09:37;;;;;;;4.97;1.48;;;22.90;75.10;;;;;;6669987;88;20184;-82
2022/05/11 21:19:40;;;;;;;2.92;1.50;;;22.50;75.80;;;;;;6686061;88;20270;-83
2022/05/11 21:29:41;;;;;;;4.18;1.50;;;22.40;75.90;;;;;;6682670;88;20191;-81
2022/05/11 21:39:42;;;;;;;5.32;1.48;;;22.40;75.90;;;;;;6676555;89;20265;-81
2022/05/11 21:49:43;;;;;;;5.20;1.48;;;22.20;76.60;;;;;;6674814;89;20211;-80
2022/05/11 21:59:43;;;;;;;3.50;1.70;;;21.90;77.50;;;;;;6678612;89;20195;-80
2022/05/11 22:09:44;;;;;;;4.75;1.50;;;21.70;79.10;;;;;;6673011;89;20184;-82
2022/05/11 22:19:44;;;;;;;4.70;1.42;;;21.50;80.20;;;;;;6674484;89;20187;-78
2022/05/11 22:29:45;;;;;;;2.80;1.50;;;21.30;85.60;;;;;;6666949;88;20231;-78
2022/05/11 22:39:46;;;;;;;5.45;1.52;;;21.10;83.10;;;;;;6686027;89;20647;-83
2022/05/11 22:49:46;;;;;;;4.20;1.42;;;20.90;84.50;;;;;;6685596;89;20341;-82
2022/05/11 22:59:47;;;;;;;4.57;1.33;;;20.90;86.10;;;;;;6683801;89;20603;-83
2022/05/11 23:09:48;;;;;;;2.90;1.40;;;20.80;87.30;;;;;;6684229;89;20227;-86
2022/05/11 23:19:48;;;;;;;6.62;1.30;;;20.70;89.80;;;;;;6685846;89;20215;-82
2022/05/11 23:29:49;;;;;;;9.20;1.23;;;20.50;90.30;;;;;;6686037;89;20218;-83
2022/05/11 23:39:52;;;;;;;8.75;1.55;;;20.10;90.20;;;;;;6691181;88;20627;-85
2022/05/11 23:49:52;;;;;;;9.57;1.52;;;19.70;91.70;;;;;;6691314;88;20237;-82
2022/05/11 23:59:53;;;;;;;6.62;1.15;;;19.20;95.80;;;;;;6686280;89;20214;-81
